Time;durP1;ratioP1;P1;durP2;ratioP2;P2;SDS_P1;SDS_P2;PMS_P1;PMS_P2;Temp;Humidity;BMP_temperature;BMP_pressure;BME280_temperature;BME280_humidity;BME280_pressure;Samples;Min_cycle;Max_cycle;Signal;HPM_P1;HPM_P2
2023/05/02 00:02:08;;;;;;;2.42;1.80;;;14.50;99.90;;;;;;5053791;28;20214;-72
2023/05/02 00:04:35;;;;;;;4.10;1.48;;;14.50;99.90;;;;;;5054011;28;20210;-71
2023/05/02 00:07:02;;;;;;;1.90;1.80;;;14.40;99.90;;;;;;5053714;28;20234;-71
2023/05/02 00:09:29;;;;;;;4.40;2.33;;;14.50;99.90;;;;;;5053880;28;20239;-71
2023/05/02 00:11:58;;;;;;;5.88;2.15;;;14.40;99.90;;;;;;5053542;28;20246;-72
2023/05/02 00:14:25;;;;;;;2.42;2.03;;;14.40;99.90;;;;;;5053382;28;20301;-72
2023/05/02 00:16:52;;;;;;;4.53;2.17;;;14.40;99.90;;;;;;5054401;28;20270;-72
2023/05/02 00:19:19;;;;;;;4.80;2.15;;;14.40;99.90;;;;;;5053772;28;20231;-72
2023/05/02 00:21:48;;;;;;;3.63;2.00;;;14.30;99.90;;;;;;5053893;28;20261;-72
2023/05/02 00:24:15;;;;;;;3.17;1.95;;;14.30;99.90;;;;;;5053412;28;20217;-71
2023/05/02 00:26:42;;;;;;;3.47;1.80;;;14.30;99.90;;;;;;5053398;28;20238;-72
2023/05/02 00:29:10;;;;;;;4.07;1.70;;;14.30;99.90;;;;;;5053074;28;20234;-73
2023/05/02 00:31:37;;;;;;;3.38;1.90;;;14.20;99.90;;;;;;5053714;28;20231;-72
2023/05/02 00:34:04;;;;;;;3.50;2.10;;;14.10;99.90;;;;;;5053281;28;20234;-72
2023/05/02 00:36:31;;;;;;;4.80;2.03;;;14.10;99.90;;;;;;5053329;28;20728;-73
2023/05/02 00:38:58;;;;;;;4.13;2.08;;;14.00;99.90;;;;;;5052957;28;20207;-73
2023/05/02 00:41:25;;;;;;;4.10;1.73;;;14.00;99.90;;;;;;5053084;28;20207;-73
2023/05/02 00:43:52;;;;;;;3.47;1.88;;;14.00;99.90;;;;;;5053568;28;20638;-72
2023/05/02 00:46:20;;;;;;;2.60;1.63;;;14.00;99.90;;;;;;5053392;28;20207;-73
2023/05/02 00:48:47;;;;;;;1.90;1.80;;;13.90;99.90;;;;;;5053194;28;20234;-73
2023/05/02 00:51:15;;;;;;;3.05;1.80;;;13.90;99.90;;;;;;5052922;28;20246;-73
2023/05/02 00:53:43;;;;;;;2.72;1.35;;;13.90;99.90;;;;;;5053073;28;20245;-73
2023/05/02 00:56:10;;;;;;;3.83;2.75;;;13.90;99.90;;;;;;5052423;28;20241;-73
2023/05/02 00:58:38;;;;;;;6.70;2.35;;;13.90;99.90;;;;;;5052978;28;20653;-71
2023/05/02 01:01:18;;;;;;;2.63;1.92;;;13.90;99.90;;;;;;5052728;28;20262;-71
2023/05/02 01:04:00;;;;;;;3.40;1.95;;;13.80;99.90;;;;;;5052793;28;20238;-72
2023/05/02 01:06:36;;;;;;;2.63;1.77;;;13.80;99.90;;;;;;5052915;28;20211;-72
2023/05/02 01:09:17;;;;;;;4.43;1.55;;;13.70;99.90;;;;;;5052532;28;20238;-72
2023/05/02 01:11:50;;;;;;;4.75;1.95;;;13.70;99.90;;;;;;5052669;28;20211;-73
2023/05/02 01:14:18;;;;;;;5.50;2.08;;;13.80;99.90;;;;;;5052273;28;20313;-73
2023/05/02 01:16:48;;;;;;;3.03;2.25;;;13.80;99.90;;;;;;5052606;28;20234;-72
2023/05/02 01:19:31;;;;;;;2.45;1.67;;;13.80;99.90;;;;;;5052369;28;20634;-73
2023/05/02 01:22:00;;;;;;;3.67;2.05;;;13.80;99.90;;;;;;5052062;28;20238;-73
2023/05/02 01:24:35;;;;;;;2.38;1.90;;;13.70;99.90;;;;;;5052569;28;20682;-72
2023/05/02 01:27:14;;;;;;;2.50;2.30;;;13.70;99.90;;;;;;5051957;28;20237;-72
2023/05/02 01:29:44;;;;;;;3.88;2.08;;;13.70;99.90;;;;;;5052223;28;20253;-72
2023/05/02 01:32:15;;;;;;;8.80;2.60;;;13.80;99.90;;;;;;5051961;28;20198;-70
2023/05/02 01:34:44;;;;;;;4.55;2.08;;;13.80;99.90;;;;;;5052304;28;20238;-70
2023/05/02 01:37:13;;;;;;;4.55;3.00;;;13.90;99.90;;;;;;5051829;28;20338;-70
2023/05/02 01:39:42;;;;;;;3.50;2.17;;;13.80;99.90;;;;;;5051992;28;20243;-70
2023/05/02 01:42:11;;;;;;;1.88;1.58;;;13.80;99.90;;;;;;5051722;28;20717;-70
2023/05/02 01:44:39;;;;;;;1.90;1.42;;;13.70;99.90;;;;;;5052146;28;20671;-70
2023/05/02 01:47:09;;;;;;;4.05;2.47;;;13.70;99.90;;;;;;5051919;28;20246;-70
2023/05/02 01:49:37;;;;;;;4.63;1.90;;;13.60;99.90;;;;;;5051811;28;20246;-70
2023/05/02 01:52:10;;;;;;;2.75;2.13;;;13.60;99.90;;;;;;5051677;28;20234;-70
2023/05/02 01:54:37;;;;;;;3.22;1.92;;;13.50;99.90;;;;;;5051746;28;20207;-71
2023/05/02 01:57:07;;;;;;;2.90;1.90;;;13.50;99.90;;;;;;5051506;28;20768;-71
2023/05/02 01:59:35;;;;;;;6.70;2.72;;;13.50;99.90;;;;;;5052030;28;20250;-71
2023/05/02 02:02:04;;;;;;;1.95;1.70;;;13.40;99.90;;;;;;5051361;28;20230;-72
2023/05/02 02:04:35;;;;;;;3.35;2.00;;;13.40;99.90;;;;;;5051821;28;20245;-74
2023/05/02 02:07:06;;;;;;;3.10;2.08;;;13.30;99.90;;;;;;5051413;28;20238;-71
2023/05/02 02:09:33;;;;;;;5.97;2.05;;;13.30;99.90;;;;;;5051510;28;20257;-72
2023/05/02 02:12:05;;;;;;;5.20;2.45;;;13.30;99.90;;;;;;5051337;28;20293;-71
2023/05/02 02:14:35;;;;;;;7.13;2.22;;;13.20;99.90;;;;;;5050874;28;20207;-71
2023/05/02 02:17:05;;;;;;;1.67;1.58;;;13.20;99.90;;;;;;5051151;28;20262;-70
2023/05/02 02:19:34;;;;;;;2.45;1.75;;;13.10;99.90;;;;;;5051317;28;20202;-72
2023/05/02 02:22:05;;;;;;;2.25;1.85;;;13.10;99.90;;;;;;5051054;28;20633;-71
2023/05/02 02:24:32;;;;;;;3.25;2.33;;;13.00;99.90;;;;;;5051708;28;20230;-71
2023/05/02 02:26:59;;;;;;;2.80;1.85;;;12.90;99.90;;;;;;5050902;28;20682;-71
2023/05/02 02:29:26;;;;;;;4.68;2.45;;;13.00;99.90;;;;;;5051304;28;20202;-71
2023/05/02 02:31:53;;;;;;;2.60;1.83;;;12.90;99.90;;;;;;5051534;28;20728;-71
2023/05/02 02:34:21;;;;;;;4.07;2.33;;;12.90;99.90;;;;;;5051538;28;20234;-71
2023/05/02 02:36:56;;;;;;;3.15;1.95;;;12.90;99.90;;;;;;5051277;28;20293;-71
2023/05/02 02:39:40;;;;;;;4.72;2.03;;;12.80;99.90;;;;;;5051349;28;20237;-70
2023/05/02 02:42:13;;;;;;;3.40;2.20;;;12.70;99.90;;;;;;5050819;28;20214;-70
2023/05/02 02:44:51;;;;;;;4.40;2.45;;;12.70;99.90;;;;;;5051173;28;20605;-71
2023/05/02 02:47:27;;;;;;;5.13;2.38;;;12.80;99.90;;;;;;5050518;28;20246;-71
2023/05/02 02:50:05;;;;;;;6.72;3.55;;;12.80;99.90;;;;;;5051160;28;20249;-71
2023/05/02 02:52:42;;;;;;;4.28;2.15;;;12.70;99.90;;;;;;5050750;28;20618;-71
2023/05/02 02:55:17;;;;;;;4.18;2.47;;;12.80;99.90;;;;;;5050651;28;20252;-71
2023/05/02 02:57:55;;;;;;;5.07;1.85;;;12.90;99.90;;;;;;5050902;28;20321;-71
2023/05/02 03:00:27;;;;;;;4.55;2.20;;;12.80;99.90;;;;;;5051217;28;20206;-71
2023/05/02 03:02:56;;;;;;;5.88;2.80;;;12.80;99.90;;;;;;5051171;28;20210;-70
2023/05/02 03:05:23;;;;;;;3.55;2.33;;;12.80;99.90;;;;;;5051124;28;20226;-69
2023/05/02 03:07:52;;;;;;;3.17;2.20;;;12.80;99.90;;;;;;5050879;28;20682;-69
2023/05/02 03:10:19;;;;;;;4.65;2.55;;;12.70;99.90;;;;;;5050698;28;20600;-70
2023/05/02 03:12:46;;;;;;;6.32;2.65;;;12.70;99.90;;;;;;5050931;28;20233;-70
2023/05/02 03:15:32;;;;;;;2.95;2.65;;;12.80;99.90;;;;;;5050197;28;20213;-71
2023/05/02 03:17:59;;;;;;;4.18;3.08;;;12.70;99.90;;;;;;5050139;28;20265;-71
2023/05/02 03:20:26;;;;;;;2.65;1.98;;;12.60;99.90;;;;;;5050637;28;20242;-71
2023/05/02 03:22:54;;;;;;;2.92;2.72;;;12.60;99.90;;;;;;5053155;28;20206;-72
2023/05/02 03:25:21;;;;;;;2.80;2.47;;;12.60;99.90;;;;;;5070720;28;20267;-69
2023/05/02 03:27:48;;;;;;;6.63;2.50;;;12.60;99.90;;;;;;5070639;28;20301;-71
2023/05/02 03:30:15;;;;;;;4.00;2.20;;;12.60;99.90;;;;;;5054554;28;20752;-72
2023/05/02 03:32:42;;;;;;;3.00;2.47;;;12.50;99.90;;;;;;5060611;28;20233;-71
2023/05/02 03:35:09;;;;;;;3.53;1.88;;;12.50;99.90;;;;;;5074291;28;20202;-71
2023/05/02 03:37:36;;;;;;;3.45;2.30;;;12.50;99.90;;;;;;5074191;28;20265;-70
2023/05/02 03:40:05;;;;;;;5.03;2.60;;;12.40;99.90;;;;;;5074144;28;20700;-70
2023/05/02 03:42:32;;;;;;;4.53;2.00;;;12.40;99.90;;;;;;5074252;28;20234;-70
2023/05/02 03:44:59;;;;;;;3.88;2.63;;;12.40;99.90;;;;;;5066781;28;20205;-70
2023/05/02 03:47:26;;;;;;;4.05;2.47;;;12.50;99.90;;;;;;5054170;28;20237;-70
2023/05/02 03:49:53;;;;;;;6.60;3.53;;;12.50;99.90;;;;;;5054320;28;20246;-71
2023/05/02 03:52:20;;;;;;;3.92;2.47;;;12.50;99.90;;;;;;5054156;28;20203;-71
2023/05/02 03:54:47;;;;;;;3.38;1.98;;;12.40;99.90;;;;;;5054183;28;20300;-70
2023/05/02 03:57:15;;;;;;;2.45;2.15;;;12.40;99.90;;;;;;5053586;28;20714;-70
2023/05/02 03:59:44;;;;;;;5.63;2.47;;;12.30;99.90;;;;;;5054047;28;20242;-71
2023/05/02 04:02:11;;;;;;;4.53;2.70;;;12.40;99.90;;;;;;5053437;28;20678;-70
2023/05/02 04:04:39;;;;;;;3.60;2.40;;;12.40;99.90;;;;;;5053837;28;20234;-70
2023/05/02 04:07:07;;;;;;;4.25;2.00;;;12.40;99.90;;;;;;5053620;28;20211;-69
2023/05/02 04:09:33;;;;;;;7.20;2.90;;;12.30;99.90;;;;;;5053813;28;20570;-70
2023/05/02 04:12:00;;;;;;;5.13;2.38;;;12.20;99.90;;;;;;5053694;28;20237;-69
2023/05/02 04:14:29;;;;;;;6.55;3.28;;;12.10;99.90;;;;;;5053473;28;20692;-70
2023/05/02 04:16:56;;;;;;;4.85;3.42;;;12.10;99.90;;;;;;5053344;28;20229;-70
2023/05/02 04:19:23;;;;;;;6.78;2.38;;;12.20;99.90;;;;;;5053767;28;20266;-69
2023/05/02 04:21:50;;;;;;;2.92;2.55;;;12.20;99.90;;;;;;5063357;28;20688;-69
2023/05/02 04:24:17;;;;;;;5.03;2.78;;;12.10;99.90;;;;;;5073014;28;20662;-69
2023/05/02 04:26:46;;;;;;;2.88;2.10;;;12.10;99.90;;;;;;5073564;28;20244;-69
2023/05/02 04:29:13;;;;;;;4.65;2.72;;;12.00;99.90;;;;;;5073298;28;20206;-69
2023/05/02 04:31:41;;;;;;;3.38;2.38;;;12.00;99.90;;;;;;5073627;28;20256;-70
2023/05/02 04:34:08;;;;;;;4.63;2.42;;;12.00;99.90;;;;;;5072958;28;20234;-70
2023/05/02 04:36:36;;;;;;;3.58;3.22;;;12.00;99.90;;;;;;5073351;28;20233;-70
2023/05/02 04:39:03;;;;;;;3.15;1.85;;;12.00;99.90;;;;;;5072162;28;20233;-69
2023/05/02 04:41:30;;;;;;;4.93;3.38;;;11.90;99.90;;;;;;5073550;28;20206;-70
2023/05/02 04:43:57;;;;;;;4.50;2.85;;;11.90;99.90;;;;;;5072986;28;20230;-71
2023/05/02 04:46:24;;;;;;;4.35;3.03;;;11.90;99.90;;;;;;5073524;28;20229;-71
2023/05/02 04:48:52;;;;;;;4.03;2.60;;;11.90;99.90;;;;;;5073393;28;20241;-71
2023/05/02 04:51:19;;;;;;;8.85;3.65;;;12.00;99.90;;;;;;5072931;28;20807;-71
2023/05/02 04:53:46;;;;;;;5.78;2.53;;;12.00;99.90;;;;;;5072669;28;20202;-70
2023/05/02 04:56:13;;;;;;;4.03;2.88;;;11.90;99.90;;;;;;5072511;28;20281;-70
2023/05/02 04:58:40;;;;;;;4.57;2.90;;;11.90;99.90;;;;;;5072522;28;20280;-70
2023/05/02 05:01:07;;;;;;;5.57;3.53;;;11.80;99.90;;;;;;5072667;28;20282;-70
2023/05/02 05:03:34;;;;;;;5.13;4.63;;;11.80;99.90;;;;;;5072603;28;20202;-69
2023/05/02 05:06:02;;;;;;;7.60;4.45;;;11.80;99.90;;;;;;5072380;28;20202;-69
2023/05/02 05:08:29;;;;;;;3.63;3.15;;;11.90;99.90;;;;;;5072609;28;20639;-70
2023/05/02 05:10:56;;;;;;;3.45;3.00;;;11.90;99.90;;;;;;5072335;28;20658;-69
2023/05/02 05:13:23;;;;;;;5.15;2.33;;;12.00;99.90;;;;;;5073010;28;20230;-70
2023/05/02 05:15:50;;;;;;;9.90;3.67;;;12.00;99.90;;;;;;5072859;28;20241;-69
2023/05/02 05:18:17;;;;;;;4.88;2.30;;;12.00;99.90;;;;;;5071894;28;20643;-69
2023/05/02 05:20:43;;;;;;;3.83;2.65;;;12.00;99.90;;;;;;5071838;28;20805;-69
2023/05/02 05:23:12;;;;;;;4.15;2.40;;;12.10;99.90;;;;;;5052263;28;20238;-69
2023/05/02 05:25:39;;;;;;;3.38;3.08;;;12.10;99.90;;;;;;5052664;28;20239;-69
2023/05/02 05:28:06;;;;;;;2.50;2.20;;;12.10;99.90;;;;;;5052115;28;20230;-69
2023/05/02 05:30:33;;;;;;;3.60;2.53;;;12.20;99.90;;;;;;5052187;28;20675;-69
2023/05/02 05:33:00;;;;;;;5.47;3.83;;;12.20;99.90;;;;;;5051634;28;20231;-71
2023/05/02 05:35:26;;;;;;;3.83;3.00;;;12.20;99.90;;;;;;5052237;28;20869;-68
2023/05/02 05:37:53;;;;;;;4.07;2.78;;;12.20;99.90;;;;;;5065398;28;20272;-70
2023/05/02 05:40:22;;;;;;;4.50;2.83;;;12.20;99.90;;;;;;5072355;28;20244;-68
2023/05/02 05:42:49;;;;;;;4.63;2.47;;;12.20;99.90;;;;;;5069028;28;20242;-70
2023/05/02 05:45:18;;;;;;;2.60;2.40;;;12.20;99.90;;;;;;5062994;28;21069;-69
2023/05/02 05:47:45;;;;;;;5.70;3.25;;;12.20;99.90;;;;;;5051885;28;20229;-69
2023/05/02 05:50:12;;;;;;;4.30;2.58;;;12.30;99.90;;;;;;5055093;28;20230;-68
2023/05/02 05:52:39;;;;;;;5.88;2.35;;;12.30;99.90;;;;;;5059933;28;20272;-69
2023/05/02 05:55:07;;;;;;;4.35;2.60;;;12.30;99.90;;;;;;5054242;28;20199;-69
2023/05/02 05:57:35;;;;;;;3.88;3.03;;;12.40;99.90;;;;;;5065233;28;20238;-69
2023/05/02 06:00:02;;;;;;;4.45;3.15;;;12.40;99.90;;;;;;5070643;28;20233;-69
2023/05/02 06:02:29;;;;;;;4.20;3.70;;;12.40;99.90;;;;;;5068383;28;20221;-69
2023/05/02 06:04:56;;;;;;;4.85;3.35;;;12.40;99.90;;;;;;5071371;28;20237;-69
2023/05/02 06:07:23;;;;;;;4.75;2.72;;;12.50;99.90;;;;;;5064216;28;20242;-69
2023/05/02 06:09:50;;;;;;;3.83;2.90;;;12.50;99.90;;;;;;5051950;28;20242;-68
2023/05/02 06:12:17;;;;;;;4.15;2.92;;;12.50;99.90;;;;;;5066757;28;20210;-69
2023/05/02 06:14:45;;;;;;;4.28;3.33;;;12.60;99.90;;;;;;5064834;28;20558;-71
2023/05/02 06:17:12;;;;;;;3.05;2.35;;;12.70;99.90;;;;;;5058017;28;20238;-69
2023/05/02 06:19:39;;;;;;;5.43;2.40;;;12.70;99.90;;;;;;5056472;28;20678;-70
2023/05/02 06:22:06;;;;;;;4.25;2.53;;;12.80;99.90;;;;;;5062902;28;20249;-69
2023/05/02 06:24:33;;;;;;;3.10;2.67;;;12.80;99.90;;;;;;5060445;28;20246;-69
2023/05/02 06:27:01;;;;;;;5.43;3.42;;;12.80;99.90;;;;;;5051051;28;20290;-72
2023/05/02 06:29:28;;;;;;;6.80;3.47;;;12.90;99.90;;;;;;5051842;28;20214;-73
2023/05/02 06:31:56;;;;;;;4.05;2.80;;;13.00;99.90;;;;;;5063220;28;20242;-68
2023/05/02 06:34:23;;;;;;;4.07;2.35;;;13.10;99.90;;;;;;5065331;28;20238;-70
2023/05/02 06:36:55;;;;;;;5.30;3.53;;;13.10;99.90;;;;;;5064081;28;20202;-69
2023/05/02 06:39:22;;;;;;;10.50;2.95;;;13.20;99.90;;;;;;5071088;28;20230;-73
2023/05/02 06:41:49;;;;;;;6.60;3.15;;;13.30;99.90;;;;;;5069389;28;20251;-73
2023/05/02 06:44:16;;;;;;;4.47;2.33;;;13.40;99.90;;;;;;5070516;28;20484;-74
2023/05/02 06:46:43;;;;;;;7.97;3.83;;;13.50;99.90;;;;;;5071229;28;20319;-73
2023/05/02 06:49:11;;;;;;;6.82;3.35;;;13.60;99.90;;;;;;5070554;28;20252;-69
2023/05/02 06:51:38;;;;;;;3.60;2.88;;;13.70;99.90;;;;;;5071138;28;20229;-70
2023/05/02 06:54:07;;;;;;;4.97;2.63;;;13.70;99.90;;;;;;5070654;28;20241;-73
2023/05/02 06:56:34;;;;;;;4.95;2.35;;;13.90;99.90;;;;;;5070949;28;20736;-72
2023/05/02 06:59:01;;;;;;;5.03;3.00;;;14.00;99.90;;;;;;5068764;28;20230;-70
2023/05/02 07:01:28;;;;;;;5.95;2.30;;;14.10;99.90;;;;;;5053408;28;20260;-71
2023/05/02 07:03:55;;;;;;;5.68;3.20;;;14.20;99.90;;;;;;5065703;28;20245;-72
2023/05/02 07:06:25;;;;;;;7.32;3.20;;;14.30;99.90;;;;;;5071217;28;20233;-73
2023/05/02 07:08:51;;;;;;;3.40;3.10;;;14.40;99.90;;;;;;5066650;28;20211;-72
2023/05/02 07:11:19;;;;;;;8.50;2.80;;;14.50;99.90;;;;;;5050546;28;20238;-71
2023/05/02 07:13:46;;;;;;;4.45;3.05;;;14.60;99.90;;;;;;5050589;28;20215;-71
2023/05/02 07:16:13;;;;;;;6.93;2.92;;;14.80;99.90;;;;;;5050368;28;20337;-71
2023/05/02 07:18:41;;;;;;;3.97;3.15;;;14.80;99.90;;;;;;5055601;28;20240;-71
2023/05/02 07:21:08;;;;;;;8.60;3.67;;;14.80;99.90;;;;;;5052853;28;20211;-70
2023/05/02 07:23:36;;;;;;;7.60;3.33;;;14.80;99.90;;;;;;5063575;28;20248;-71
2023/05/02 07:26:04;;;;;;;4.78;3.90;;;15.00;99.90;;;;;;5065511;28;20246;-71
2023/05/02 07:28:31;;;;;;;7.85;3.78;;;15.10;99.90;;;;;;5050522;28;20234;-72
2023/05/02 07:30:57;;;;;;;4.72;3.28;;;15.40;99.90;;;;;;5050096;28;20237;-71
2023/05/02 07:33:24;;;;;;;5.70;3.83;;;15.30;99.90;;;;;;5052774;28;20297;-70
2023/05/02 07:35:51;;;;;;;5.45;3.67;;;15.40;99.90;;;;;;5054101;28;20694;-70
2023/05/02 07:38:18;;;;;;;5.97;3.67;;;15.50;99.90;;;;;;5058691;28;20257;-70
2023/05/02 07:40:46;;;;;;;6.93;4.10;;;15.50;99.90;;;;;;5058533;28;20250;-70
2023/05/02 07:43:14;;;;;;;5.90;3.22;;;15.60;99.90;;;;;;5049609;28;20733;-69
2023/05/02 07:45:41;;;;;;;5.88;3.30;;;15.80;99.90;;;;;;5050209;28;20206;-70
2023/05/02 07:48:08;;;;;;;6.38;2.90;;;15.90;99.90;;;;;;5049824;28;20682;-70
2023/05/02 07:50:35;;;;;;;4.35;2.95;;;15.80;99.90;;;;;;5050390;28;20246;-70
2023/05/02 07:53:02;;;;;;;5.38;2.45;;;15.80;99.90;;;;;;5050196;28;20282;-69
2023/05/02 07:55:30;;;;;;;7.90;2.63;;;15.80;99.90;;;;;;5050523;28;20241;-69
2023/05/02 07:57:58;;;;;;;5.10;2.08;;;15.70;99.90;;;;;;5049694;28;20207;-70
2023/05/02 08:00:25;;;;;;;5.55;2.40;;;15.80;99.90;;;;;;5054484;28;20296;-67
2023/05/02 08:02:52;;;;;;;6.65;2.30;;;16.00;99.90;;;;;;5063136;28;20257;-66
2023/05/02 08:05:19;;;;;;;3.42;2.78;;;16.00;99.90;;;;;;5061953;28;20229;-70
2023/05/02 08:07:46;;;;;;;2.25;2.05;;;16.00;99.90;;;;;;5055329;28;20257;-70
2023/05/02 08:10:13;;;;;;;4.88;1.92;;;16.10;99.90;;;;;;5049730;28;20243;-69
2023/05/02 08:12:40;;;;;;;3.58;2.25;;;16.20;99.90;;;;;;5050974;28;20234;-70
2023/05/02 08:15:12;;;;;;;4.63;1.90;;;16.30;99.90;;;;;;5053403;28;20310;-69
2023/05/02 08:17:39;;;;;;;5.15;2.38;;;16.30;99.90;;;;;;5053882;28;20213;-69
2023/05/02 08:20:07;;;;;;;4.63;2.00;;;16.30;99.90;;;;;;5061124;28;20666;-71
2023/05/02 08:22:34;;;;;;;3.55;2.38;;;16.30;99.90;;;;;;5065377;28;20264;-77
2023/05/02 08:25:01;;;;;;;10.40;2.78;;;16.30;99.90;;;;;;5070902;28;20690;-77
2023/05/02 08:27:28;;;;;;;5.22;2.55;;;16.40;99.90;;;;;;5071007;28;20241;-66
2023/05/02 08:29:55;;;;;;;5.18;2.72;;;16.60;99.90;;;;;;5054611;28;20256;-66
2023/05/02 08:32:23;;;;;;;4.63;2.15;;;16.70;99.90;;;;;;5053900;28;20221;-73
2023/05/02 08:34:50;;;;;;;2.22;1.83;;;16.80;99.90;;;;;;5054048;28;20227;-76
2023/05/02 08:37:17;;;;;;;3.33;1.55;;;17.10;99.90;;;;;;5053149;28;20242;-73
2023/05/02 08:39:44;;;;;;;5.95;1.88;;;17.10;99.90;;;;;;5060090;28;20257;-66
2023/05/02 08:42:11;;;;;;;10.85;2.15;;;17.10;99.90;;;;;;5059184;28;20207;-67
2023/05/02 08:44:38;;;;;;;6.10;2.83;;;17.10;99.90;;;;;;5060617;28;20740;-73
2023/05/02 08:47:06;;;;;;;1.65;1.35;;;17.10;99.90;;;;;;5067670;28;20206;-67
2023/05/02 08:49:35;;;;;;;3.47;1.98;;;17.20;99.90;;;;;;5073205;28;20301;-66
2023/05/02 08:52:05;;;;;;;2.25;1.90;;;17.30;99.90;;;;;;5055307;28;20215;-66
2023/05/02 08:54:33;;;;;;;3.72;2.42;;;17.50;99.90;;;;;;5053066;28;20211;-71
2023/05/02 08:57:02;;;;;;;2.55;2.00;;;17.50;99.90;;;;;;5052778;28;20234;-68
2023/05/02 08:59:29;;;;;;;2.13;1.80;;;17.50;99.90;;;;;;5053026;28;20652;-72
2023/05/02 09:02:20;;;;;;;2.55;1.92;;;17.50;99.90;;;;;;5052833;28;20203;-70
2023/05/02 09:04:53;;;;;;;5.30;1.90;;;17.70;99.90;;;;;;5052864;28;20709;-72
2023/05/02 09:07:19;;;;;;;5.88;1.90;;;17.70;99.90;;;;;;5056129;28;20682;-70
2023/05/02 09:09:46;;;;;;;4.43;2.17;;;18.00;99.90;;;;;;5052657;28;20234;-69
2023/05/02 09:12:15;;;;;;;6.05;1.85;;;18.10;99.90;;;;;;5052608;28;20203;-68
2023/05/02 09:14:43;;;;;;;1.90;1.60;;;18.20;99.90;;;;;;5052632;28;20636;-66
2023/05/02 09:17:10;;;;;;;2.17;1.80;;;18.30;99.90;;;;;;5052640;28;20210;-68
2023/05/02 09:19:37;;;;;;;1.98;1.58;;;18.60;99.90;;;;;;5062119;28;20233;-66
2023/05/02 09:22:06;;;;;;;3.45;1.50;;;18.80;99.90;;;;;;5052204;28;20317;-68
2023/05/02 09:24:33;;;;;;;4.80;2.45;;;19.00;99.90;;;;;;5069623;28;20255;-67
2023/05/02 09:27:01;;;;;;;3.15;1.63;;;19.30;99.90;;;;;;5072308;28;20202;-68
2023/05/02 09:29:34;;;;;;;3.58;1.58;;;19.70;99.90;;;;;;5068564;28;20579;-69
2023/05/02 09:32:01;;;;;;;5.35;1.90;;;20.40;99.90;;;;;;5066398;28;20225;-68
2023/05/02 09:34:28;;;;;;;2.45;1.58;;;20.90;99.90;;;;;;5072415;28;20677;-68
2023/05/02 09:36:56;;;;;;;3.70;1.48;;;22.40;99.90;;;;;;5072072;28;20233;-66
2023/05/02 09:39:25;;;;;;;2.92;1.63;;;22.80;99.90;;;;;;5059711;28;20238;-69
2023/05/02 09:41:52;;;;;;;2.63;1.60;;;22.90;99.90;;;;;;5052612;28;20701;-70
2023/05/02 09:44:21;;;;;;;4.47;1.88;;;24.60;99.90;;;;;;5057029;28;20214;-67
2023/05/02 09:46:49;;;;;;;2.97;2.05;;;24.30;99.90;;;;;;5052276;28;20237;-68
2023/05/02 09:49:18;;;;;;;3.63;1.92;;;23.00;99.90;;;;;;5070113;28;20260;-68
2023/05/02 09:51:46;;;;;;;2.70;1.63;;;21.50;99.90;;;;;;5065565;28;20214;-68
2023/05/02 09:54:13;;;;;;;2.67;1.83;;;21.00;99.90;;;;;;5051322;28;20246;-67
2023/05/02 09:56:56;;;;;;;2.88;1.48;;;20.80;99.90;;;;;;5052037;28;20199;-71
2023/05/02 09:59:23;;;;;;;1.75;1.55;;;20.70;99.90;;;;;;5052209;28;20230;-68
2023/05/02 10:01:57;;;;;;;1.75;1.48;;;20.60;99.90;;;;;;5052085;28;20198;-68
2023/05/02 10:04:25;;;;;;;1.42;1.30;;;20.40;99.90;;;;;;5051973;28;20234;-67
2023/05/02 10:06:54;;;;;;;3.40;1.70;;;20.40;99.90;;;;;;5052349;28;20234;-69
2023/05/02 10:09:21;;;;;;;1.63;1.52;;;20.70;99.90;;;;;;5051743;28;20207;-68
2023/05/02 10:11:51;;;;;;;3.38;1.60;;;22.30;99.90;;;;;;5051682;28;20226;-67
2023/05/02 10:14:21;;;;;;;4.20;1.58;;;22.60;99.90;;;;;;5051082;28;20302;-70
2023/05/02 10:17:00;;;;;;;2.28;1.30;;;22.40;99.90;;;;;;5051659;28;20199;-68
2023/05/02 10:19:30;;;;;;;2.40;2.20;;;23.60;99.90;;;;;;5051365;28;20721;-68
2023/05/02 10:21:59;;;;;;;2.22;1.52;;;23.10;99.90;;;;;;5050904;28;20687;-67
2023/05/02 10:24:28;;;;;;;2.83;1.52;;;23.40;99.90;;;;;;5051424;28;20203;-68
2023/05/02 10:26:56;;;;;;;2.65;1.67;;;22.60;99.90;;;;;;5051329;28;20282;-66
2023/05/02 10:29:24;;;;;;;1.98;1.63;;;21.80;99.90;;;;;;5055247;28;20234;-68
2023/05/02 10:31:53;;;;;;;1.88;1.70;;;21.30;99.90;;;;;;5051810;28;20256;-68
2023/05/02 10:34:20;;;;;;;2.22;1.58;;;21.00;99.90;;;;;;5051205;28;20616;-66
2023/05/02 10:36:47;;;;;;;3.95;1.67;;;21.00;99.90;;;;;;5050445;28;20238;-67
2023/05/02 10:39:15;;;;;;;3.08;1.27;;;20.90;99.90;;;;;;5050598;28;20674;-68
2023/05/02 10:41:43;;;;;;;2.75;1.67;;;20.90;99.90;;;;;;5051101;28;20675;-68
2023/05/02 10:44:10;;;;;;;3.22;1.40;;;20.50;99.90;;;;;;5049775;28;20479;-68
2023/05/02 10:46:40;;;;;;;2.97;1.35;;;20.50;99.90;;;;;;5051257;28;20241;-68
2023/05/02 10:49:09;;;;;;;4.32;1.65;;;20.60;99.90;;;;;;5051096;28;20224;-71
2023/05/02 10:51:37;;;;;;;1.40;1.30;;;20.60;99.90;;;;;;5063269;28;20238;-68
2023/05/02 10:54:23;;;;;;;2.40;1.58;;;20.50;99.90;;;;;;5052351;28;20622;-68
2023/05/02 10:57:07;;;;;;;1.35;1.00;;;20.80;99.90;;;;;;5071087;28;20237;-70
2023/05/02 10:59:36;;;;;;;1.67;1.20;;;20.90;99.90;;;;;;5069524;28;20705;-70
2023/05/02 11:02:04;;;;;;;1.00;0.90;;;20.90;99.90;;;;;;5057354;28;20670;-68
2023/05/02 11:05:00;;;;;;;2.78;1.40;;;20.90;99.90;;;;;;5056900;28;20265;-69
2023/05/02 11:07:27;;;;;;;2.20;1.48;;;20.70;99.90;;;;;;5064843;28;20210;-69
2023/05/02 11:10:15;;;;;;;1.73;1.08;;;20.80;99.90;;;;;;5070872;28;20217;-67
2023/05/02 11:12:46;;;;;;;2.13;1.20;;;20.70;99.90;;;;;;5055586;28;20214;-69
2023/05/02 11:15:13;;;;;;;1.10;1.08;;;20.80;99.90;;;;;;5050073;28;20222;-68
2023/05/02 11:18:00;;;;;;;3.33;1.35;;;20.90;99.90;;;;;;5050716;28;20242;-68
2023/05/02 11:20:27;;;;;;;1.17;1.00;;;20.80;99.90;;;;;;5050364;28;20321;-69
2023/05/02 11:22:56;;;;;;;1.33;0.95;;;20.60;99.90;;;;;;5050630;28;20344;-67
2023/05/02 11:25:37;;;;;;;1.73;1.05;;;20.60;99.90;;;;;;5050977;28;20242;-68
2023/05/02 11:28:06;;;;;;;1.42;1.25;;;20.80;99.90;;;;;;5050282;28;20242;-68
2023/05/02 11:30:44;;;;;;;1.48;1.10;;;20.60;99.90;;;;;;5050942;28;20706;-66
2023/05/02 11:33:19;;;;;;;2.78;1.42;;;20.40;99.90;;;;;;5060304;28;20210;-68
2023/05/02 11:35:49;;;;;;;2.53;1.20;;;20.50;99.90;;;;;;5070417;28;20253;-68
2023/05/02 11:38:19;;;;;;;1.58;1.30;;;20.80;99.90;;;;;;5070415;28;20206;-66
2023/05/02 11:40:57;;;;;;;3.15;1.33;;;21.00;99.90;;;;;;5070669;28;20312;-69
2023/05/02 11:43:25;;;;;;;1.63;1.05;;;20.40;99.90;;;;;;5070676;28;20723;-69
2023/05/02 11:45:53;;;;;;;2.40;1.10;;;20.60;99.90;;;;;;5070670;28;20669;-69
2023/05/02 11:48:25;;;;;;;3.97;1.40;;;20.90;99.90;;;;;;5072494;28;20209;-66
2023/05/02 11:50:55;;;;;;;4.30;1.75;;;20.90;99.90;;;;;;5074749;28;20237;-66
2023/05/02 11:53:23;;;;;;;2.60;1.20;;;21.10;99.90;;;;;;5074778;28;20206;-66
2023/05/02 11:55:53;;;;;;;2.67;1.17;;;21.00;99.90;;;;;;5074747;28;20228;-66
2023/05/02 11:58:21;;;;;;;3.75;1.10;;;21.10;99.90;;;;;;5064495;28;20206;-68
2023/05/02 12:00:49;;;;;;;3.78;1.00;;;21.20;99.90;;;;;;5061193;28;20678;-69
2023/05/02 12:03:22;;;;;;;2.33;1.50;;;21.10;99.90;;;;;;5062818;28;20206;-65
2023/05/02 12:05:50;;;;;;;2.92;1.25;;;21.10;99.90;;;;;;5065252;28;20725;-66
2023/05/02 12:08:25;;;;;;;3.33;1.25;;;21.20;99.90;;;;;;5053502;28;20215;-66
2023/05/02 12:10:53;;;;;;;2.95;0.98;;;21.00;99.90;;;;;;5054217;28;20298;-66
2023/05/02 12:13:22;;;;;;;2.90;1.00;;;20.90;99.90;;;;;;5054010;28;20640;-68
2023/05/02 12:15:50;;;;;;;1.60;1.08;;;21.00;99.90;;;;;;5054087;28;20211;-67
2023/05/02 12:18:18;;;;;;;4.13;0.93;;;21.20;99.90;;;;;;5053381;28;20207;-65
2023/05/02 12:20:47;;;;;;;2.90;1.10;;;21.40;99.90;;;;;;5053785;28;20270;-66
2023/05/02 12:23:14;;;;;;;1.00;0.90;;;21.40;99.90;;;;;;5053237;28;20589;-65
2023/05/02 12:25:42;;;;;;;1.35;1.10;;;21.40;99.90;;;;;;5053730;28;20238;-65
2023/05/02 12:28:10;;;;;;;11.32;1.40;;;21.50;99.90;;;;;;5053321;28;20238;-66
2023/05/02 12:30:38;;;;;;;3.97;2.00;;;21.70;99.90;;;;;;5052853;28;20213;-67
2023/05/02 12:33:06;;;;;;;1.58;0.90;;;21.70;99.90;;;;;;5052954;28;20804;-66
2023/05/02 12:35:34;;;;;;;4.78;1.60;;;21.50;99.90;;;;;;5053421;28;20209;-71
2023/05/02 12:38:17;;;;;;;1.42;1.25;;;21.60;99.90;;;;;;5053096;28;20203;-67
2023/05/02 12:40:51;;;;;;;2.00;0.95;;;21.70;99.90;;;;;;5053228;28;20230;-67
2023/05/02 12:43:19;;;;;;;1.20;0.95;;;21.80;99.90;;;;;;5053109;28;20241;-72
2023/05/02 12:45:47;;;;;;;0.98;0.77;;;21.70;99.90;;;;;;5053421;28;20251;-71
2023/05/02 12:48:22;;;;;;;1.73;1.17;;;21.70;99.90;;;;;;5052567;28;20206;-68
2023/05/02 12:50:50;;;;;;;1.50;1.15;;;21.90;99.90;;;;;;5053477;28;20644;-68
2023/05/02 12:53:37;;;;;;;1.52;1.30;;;22.00;99.90;;;;;;5052829;28;20687;-70
2023/05/02 12:56:04;;;;;;;3.15;1.25;;;22.00;99.90;;;;;;5052779;28;20289;-67